Time;durP1;ratioP1;P1;durP2;ratioP2;P2;SDS_P1;SDS_P2;PMS_P1;PMS_P2;Temp;Humidity;BMP_temperature;BMP_pressure;BME280_temperature;BME280_humidity;BME280_pressure;Samples;Min_cycle;Max_cycle;Signal;HPM_P1;HPM_P2
2021/12/10 00:01:34;;;;;;;29.15;13.13;;;;;;;-1.28;100.00;99017.47;5116164;28;20044;-79
2021/12/10 00:04:03;;;;;;;26.40;13.25;;;;;;;-1.17;100.00;99004.00;5115553;27;20496;-79
2021/12/10 00:06:33;;;;;;;27.40;12.73;;;;;;;-1.14;100.00;99001.28;5116070;27;20101;-79
2021/12/10 00:09:07;;;;;;;31.92;12.85;;;;;;;-0.94;100.00;99007.91;5117198;28;20485;-79
2021/12/10 00:11:38;;;;;;;27.80;13.30;;;;;;;-1.01;100.00;99007.19;5117188;28;20503;-79
2021/12/10 00:14:07;;;;;;;30.92;13.38;;;;;;;-0.96;100.00;99002.66;5115818;28;20096;-79
2021/12/10 00:16:35;;;;;;;29.88;13.50;;;;;;;-1.26;100.00;98994.47;5115669;28;20043;-79
2021/12/10 00:19:21;;;;;;;33.88;13.63;;;;;;;-1.17;100.00;98993.41;5115197;28;20050;-79
2021/12/10 00:21:49;;;;;;;29.23;14.10;;;;;;;-1.00;100.00;98997.44;5095857;28;20052;-79
2021/12/10 00:24:21;;;;;;;28.30;13.07;;;;;;;-1.03;100.00;98987.78;5096849;28;20052;-79
2021/12/10 00:26:48;;;;;;;30.15;13.65;;;;;;;-0.96;100.00;98981.44;5115519;27;20052;-79
2021/12/10 00:29:17;;;;;;;29.15;13.10;;;;;;;-1.12;100.00;98974.72;5115548;27;20342;-79
2021/12/10 00:31:49;;;;;;;29.27;13.90;;;;;;;-0.93;100.00;98970.78;5113966;27;20043;-79
2021/12/10 00:34:22;;;;;;;31.13;14.13;;;;;;;-0.84;100.00;98974.09;5116856;28;20047;-79
2021/12/10 00:36:52;;;;;;;32.50;13.38;;;;;;;-0.89;100.00;98966.25;5115541;27;20047;-79
2021/12/10 00:39:24;;;;;;;29.98;13.30;;;;;;;-0.79;100.00;98958.94;5115266;27;20105;-79
2021/12/10 00:41:53;;;;;;;27.60;13.50;;;;;;;-0.84;100.00;98963.50;5116135;28;20043;-78
2021/12/10 00:44:20;;;;;;;30.17;13.68;;;;;;;-0.89;100.00;98963.59;5115144;27;20047;-79
2021/12/10 00:46:48;;;;;;;28.95;13.73;;;;;;;-0.64;100.00;98968.31;5114818;27;20051;-79
2021/12/10 00:49:16;;;;;;;28.88;13.23;;;;;;;-0.75;100.00;98971.22;5115069;28;20047;-78
2021/12/10 00:51:43;;;;;;;33.58;13.98;;;;;;;-0.91;100.00;98961.00;5115028;28;20044;-79
2021/12/10 00:54:12;;;;;;;29.25;13.65;;;;;;;-0.89;100.00;98951.22;5115077;28;20097;-78
2021/12/10 00:56:42;;;;;;;31.67;13.07;;;;;;;-0.77;100.00;98955.38;5114805;28;20092;-79
2021/12/10 00:59:10;;;;;;;28.92;14.43;;;;;;;-0.74;100.00;98952.63;5114803;28;20043;-79
2021/12/10 01:01:38;;;;;;;31.40;13.93;;;;;;;-0.72;100.00;98944.63;5114459;28;20048;-79
2021/12/10 01:04:09;;;;;;;33.33;13.80;;;;;;;-0.61;100.00;98945.25;5114898;28;20039;-79
2021/12/10 01:06:38;;;;;;;34.33;14.50;;;;;;;-0.81;100.00;98948.41;5115008;28;20047;-79
2021/12/10 01:09:09;;;;;;;32.72;13.90;;;;;;;-0.99;100.00;98949.72;5114635;28;20039;-79
2021/12/10 01:11:39;;;;;;;31.65;14.15;;;;;;;-0.83;100.00;98944.03;5115664;28;20039;-79
2021/12/10 01:14:17;;;;;;;31.77;13.43;;;;;;;-0.75;100.00;98937.63;5113897;28;20040;-79
2021/12/10 01:25:11;;;;;;;35.85;14.05;;;;;;;-0.84;100.00;98921.06;5115420;28;20039;-79
2021/12/10 01:27:40;;;;;;;36.90;14.93;;;;;;;-0.74;100.00;98917.28;5095795;28;20044;-79
2021/12/10 01:30:14;;;;;;;33.00;13.75;;;;;;;-0.34;100.00;98926.88;5093792;28;20074;-79
2021/12/10 01:32:46;;;;;;;32.42;13.98;;;;;;;-0.59;100.00;98918.69;5094137;28;20052;-79
2021/12/10 01:35:17;;;;;;;34.35;14.02;;;;;;;-0.49;100.00;98914.00;5093786;28;20044;-79
2021/12/10 01:37:45;;;;;;;37.25;14.82;;;;;;;-0.35;100.00;98914.50;5095138;28;20051;-78
2021/12/10 01:40:13;;;;;;;35.25;14.57;;;;;;;-0.57;100.00;98916.84;5093945;28;20047;-79
2021/12/10 01:42:45;;;;;;;34.72;14.00;;;;;;;-0.32;100.00;98918.88;5093868;28;20101;-78
2021/12/10 01:45:21;;;;;;;36.85;15.20;;;;;;;-0.63;100.00;98909.91;5094336;28;20055;-79
2021/12/10 01:47:50;;;;;;;;;;;;;;;-0.58;100.00;98912.47;5095082;28;20126;-78
2021/12/10 01:50:18;;;;;;;34.53;14.25;;;;;;;-0.30;100.00;98912.59;5093733;28;20389;-79
2021/12/10 01:52:50;;;;;;;30.98;13.80;;;;;;;-0.70;100.00;98910.13;5093832;28;20562;-78
2021/12/10 01:55:20;;;;;;;35.08;14.02;;;;;;;-0.52;100.00;98904.34;5094194;28;20087;-79
2021/12/10 01:57:49;;;;;;;32.97;13.00;;;;;;;-0.26;100.00;98896.59;5094576;28;20082;-79
2021/12/10 02:00:20;;;;;;;35.25;14.43;;;;;;;-0.27;100.00;98895.72;5093547;28;20090;-79
2021/12/10 02:02:48;;;;;;;36.17;14.65;;;;;;;-0.38;100.00;98892.50;5093614;28;20048;-79
2021/12/10 02:05:17;;;;;;;36.95;15.18;;;;;;;-0.48;100.00;98884.75;5093683;28;20044;-79
2021/12/10 02:07:45;;;;;;;39.75;17.42;;;;;;;-0.31;100.00;98875.50;5093426;28;20040;-79
2021/12/10 02:10:16;;;;;;;38.50;15.93;;;;;;;-0.31;100.00;98872.84;5093505;28;20101;-78
2021/12/10 02:12:45;;;;;;;39.45;16.00;;;;;;;-0.44;100.00;98872.31;5109621;28;20055;-79
2021/12/10 02:15:13;;;;;;;33.35;14.98;;;;;;;-0.49;100.00;98866.25;5113641;28;20071;-79
2021/12/10 02:17:45;;;;;;;43.63;17.95;;;;;;;-0.55;100.00;98858.47;5113874;28;20090;-79
2021/12/10 02:20:19;;;;;;;43.58;20.13;;;;;;;-0.46;100.00;98852.91;5113601;28;20040;-79
2021/12/10 02:22:50;;;;;;;36.47;15.15;;;;;;;-0.27;100.00;98845.31;5113954;27;20553;-79
2021/12/10 02:25:22;;;;;;;39.05;14.88;;;;;;;-0.38;100.00;98842.09;5115474;28;20493;-79
2021/12/10 02:27:50;;;;;;;38.92;16.35;;;;;;;-0.42;100.00;98841.28;5121161;28;20044;-79
2021/12/10 02:30:19;;;;;;;37.20;15.88;;;;;;;-0.28;100.00;98829.41;5120427;28;20126;-79
2021/12/10 02:32:46;;;;;;;33.28;14.20;;;;;;;-0.02;100.00;98836.63;5120316;28;20069;-79
2021/12/10 02:35:15;;;;;;;37.25;15.15;;;;;;;-0.34;100.00;98841.94;5120421;28;20047;-79
2021/12/10 02:37:44;;;;;;;35.63;14.93;;;;;;;-0.38;100.00;98842.94;5120466;28;20108;-79
2021/12/10 02:40:17;;;;;;;31.20;13.50;;;;;;;-0.33;100.00;98845.47;5120231;28;20040;-79
2021/12/10 02:42:45;;;;;;;32.15;14.43;;;;;;;-0.38;100.00;98840.28;5120242;28;20051;-78
2021/12/10 02:45:15;;;;;;;32.35;14.20;;;;;;;-0.39;100.00;98835.91;5120235;27;20051;-79
2021/12/10 02:47:42;;;;;;;30.77;13.35;;;;;;;-0.19;100.00;98821.22;5120201;27;20112;-79
2021/12/10 02:50:11;;;;;;;33.80;13.48;;;;;;;-0.19;100.00;98819.41;5120383;28;20554;-79
2021/12/10 02:52:39;;;;;;;36.40;14.70;;;;;;;-0.09;100.00;98824.44;5120239;28;20044;-79
2021/12/10 02:55:10;;;;;;;37.42;14.70;;;;;;;-0.32;100.00;98810.91;5120211;28;20039;-79
2021/12/10 02:57:39;;;;;;;34.05;14.65;;;;;;;-0.18;100.00;98820.28;5121227;28;20055;-79
2021/12/10 03:00:08;;;;;;;34.17;14.43;;;;;;;-0.53;100.00;98814.19;5120139;28;20043;-79
2021/12/10 03:02:36;;;;;;;36.38;14.10;;;;;;;-0.27;100.00;98820.53;5120108;27;20047;-79
2021/12/10 03:05:06;;;;;;;37.42;14.73;;;;;;;-0.10;100.00;98828.91;5120056;28;20047;-79
2021/12/10 03:07:35;;;;;;;34.60;14.25;;;;;;;-0.20;100.00;98838.06;5121698;28;20047;-79
2021/12/10 03:10:04;;;;;;;29.75;12.95;;;;;;;0.04;100.00;98819.66;5120223;28;20104;-79
2021/12/10 03:12:32;;;;;;;34.20;14.23;;;;;;;-0.15;100.00;98814.91;5119643;28;20485;-79
2021/12/10 03:15:01;;;;;;;35.35;13.85;;;;;;;-0.21;100.00;98804.44;5120347;28;20054;-79
2021/12/10 03:17:31;;;;;;;30.60;13.38;;;;;;;0.13;100.00;98804.31;5120091;28;20100;-79
2021/12/10 03:19:59;;;;;;;32.35;13.38;;;;;;;-0.19;100.00;98806.13;5120224;28;20492;-79
2021/12/10 03:22:27;;;;;;;32.97;13.55;;;;;;;-0.41;100.00;98810.31;5119690;27;20051;-79
2021/12/10 03:24:55;;;;;;;33.35;13.20;;;;;;;-0.34;100.00;98809.25;5119729;28;20047;-79
2021/12/10 03:27:23;;;;;;;32.83;13.50;;;;;;;0.05;100.00;98802.81;5119557;28;20044;-79
2021/12/10 03:29:52;;;;;;;34.28;14.23;;;;;;;-0.22;100.00;98805.34;5119796;28;20044;-79
2021/12/10 03:32:26;;;;;;;36.72;14.93;;;;;;;-0.12;100.00;98819.22;5119808;27;20455;-79
2021/12/10 03:34:53;;;;;;;33.90;15.07;;;;;;;-0.19;100.00;98808.78;5121600;27;20413;-79
2021/12/10 03:37:21;;;;;;;30.75;13.70;;;;;;;-0.28;100.00;98811.72;5117790;27;20039;-79
2021/12/10 03:39:51;;;;;;;30.20;14.23;;;;;;;-0.10;100.00;98815.63;5116644;27;20047;-79
2021/12/10 03:42:19;;;;;;;28.77;13.45;;;;;;;-0.19;100.00;98815.91;5117803;28;20442;-79
2021/12/10 03:44:46;;;;;;;30.80;14.85;;;;;;;-0.16;100.00;98813.16;5116416;28;20059;-79
2021/12/10 03:47:14;;;;;;;33.22;14.27;;;;;;;-0.17;100.00;98808.75;5116495;27;20055;-79
2021/12/10 03:49:44;;;;;;;36.88;14.68;;;;;;;-0.01;100.00;98803.84;5116551;28;20043;-79
2021/12/10 03:52:11;;;;;;;35.03;14.77;;;;;;;-0.06;100.00;98801.34;5116346;28;20043;-79
2021/12/10 03:54:40;;;;;;;34.47;14.10;;;;;;;-0.16;100.00;98797.22;5115982;28;20191;-79
2021/12/10 03:57:08;;;;;;;31.58;13.23;;;;;;;-0.15;100.00;98796.31;5116227;28;20070;-79
2021/12/10 03:59:37;;;;;;;28.27;13.68;;;;;;;-0.20;100.00;98806.19;5116173;28;20052;-79
2021/12/10 04:02:06;;;;;;;28.35;12.82;;;;;;;-0.20;100.00;98809.72;5116274;27;20047;-79
2021/12/10 04:04:38;;;;;;;26.02;12.27;;;;;;;0.05;100.00;98801.03;5115831;27;20055;-79
2021/12/10 04:07:10;;;;;;;27.75;13.23;;;;;;;-0.07;100.00;98802.25;5117121;28;20051;-79
2021/12/10 04:09:40;;;;;;;31.40;14.18;;;;;;;-0.27;100.00;98791.34;5116743;28;20043;-79
2021/12/10 04:12:08;;;;;;;35.42;15.88;;;;;;;-0.13;100.00;98790.94;5115220;28;20039;-79
2021/12/10 04:14:37;;;;;;;27.60;12.88;;;;;;;-0.09;100.00;98805.84;5115704;27;20123;-79
2021/12/10 04:17:06;;;;;;;30.42;13.80;;;;;;;-0.07;100.00;98807.56;5115816;27;20039;-79
2021/12/10 04:19:35;;;;;;;30.67;13.65;;;;;;;-0.06;100.00;98808.44;5115725;27;20397;-79
2021/12/10 04:22:05;;;;;;;30.23;12.57;;;;;;;-0.04;100.00;98791.53;5115692;28;20055;-79
2021/12/10 04:24:36;;;;;;;25.42;12.40;;;;;;;-0.18;100.00;98799.06;5115954;27;20039;-79
2021/12/10 04:27:05;;;;;;;29.77;12.93;;;;;;;-0.20;100.00;98811.50;5116423;28;20105;-79
2021/12/10 04:29:33;;;;;;;31.20;12.95;;;;;;;0.00;100.00;98802.97;5115277;27;20047;-79
2021/12/10 04:32:01;;;;;;;28.13;12.93;;;;;;;-0.08;100.00;98795.22;5115340;28;20550;-79
2021/12/10 04:34:29;;;;;;;28.90;13.05;;;;;;;-0.18;100.00;98791.94;5116163;28;20108;-79
2021/12/10 04:36:58;;;;;;;26.95;12.20;;;;;;;-0.04;100.00;98795.97;5115436;27;20100;-79
2021/12/10 04:39:26;;;;;;;31.90;15.68;;;;;;;-0.07;100.00;98804.91;5115093;27;20481;-79
2021/12/10 04:41:55;;;;;;;30.83;13.85;;;;;;;-0.04;100.00;98798.63;5115215;28;20408;-79
2021/12/10 04:44:23;;;;;;;26.63;12.38;;;;;;;0.05;100.00;98808.13;5115030;28;20039;-79
2021/12/10 04:46:51;;;;;;;27.70;12.02;;;;;;;0.07;100.00;98814.25;5114817;28;20040;-79
2021/12/10 04:49:18;;;;;;;33.53;12.77;;;;;;;0.03;100.00;98813.50;5114039;28;20382;-79
2021/12/10 04:51:50;;;;;;;28.15;12.23;;;;;;;-0.06;100.00;98808.44;5114936;28;20055;-79
2021/12/10 04:54:19;;;;;;;25.42;12.10;;;;;;;0.20;100.00;98798.81;5114541;28;20052;-79
2021/12/10 04:56:48;;;;;;;26.17;12.07;;;;;;;0.13;100.00;98800.78;5114860;28;20047;-79
2021/12/10 04:59:18;;;;;;;27.17;12.48;;;;;;;0.05;100.00;98794.84;5115184;27;20426;-79
2021/12/10 05:01:47;;;;;;;26.17;12.32;;;;;;;0.32;100.00;98794.91;5115743;27;20052;-79
2021/12/10 05:04:15;;;;;;;29.20;13.52;;;;;;;-0.04;100.00;98786.25;5115079;27;20040;-79
2021/12/10 05:06:43;;;;;;;27.75;12.57;;;;;;;0.24;100.00;98788.06;5114882;28;20050;-79
2021/12/10 05:09:12;;;;;;;30.08;14.02;;;;;;;0.22;100.00;98786.34;5114446;28;20044;-79
2021/12/10 05:11:41;;;;;;;24.98;11.75;;;;;;;0.08;100.00;98769.06;5114484;28;20047;-79
2021/12/10 05:14:09;;;;;;;26.55;12.45;;;;;;;0.01;100.00;98762.22;5114984;28;20104;-79
2021/12/10 05:16:43;;;;;;;26.52;12.38;;;;;;;0.02;100.00;98765.72;5114567;28;20077;-79
2021/12/10 05:19:11;;;;;;;31.50;13.70;;;;;;;0.01;100.00;98761.34;5115529;28;20047;-79
2021/12/10 05:21:40;;;;;;;28.00;12.70;;;;;;;0.11;100.00;98768.09;5114185;27;20052;-79
2021/12/10 05:24:09;;;;;;;26.13;12.45;;;;;;;-0.01;100.00;98772.88;5114185;28;20043;-79
2021/12/10 05:26:37;;;;;;;31.08;13.02;;;;;;;0.09;100.00;98773.47;5111178;28;20527;-78
2021/12/10 05:29:06;;;;;;;30.27;12.98;;;;;;;0.31;100.00;98769.28;5110873;28;20047;-79
2021/12/10 05:31:34;;;;;;;27.85;12.57;;;;;;;0.16;100.00;98765.31;5110421;28;20044;-79
2021/12/10 05:34:04;;;;;;;28.50;12.95;;;;;;;0.06;100.00;98780.63;5110859;28;20051;-79
2021/12/10 05:36:32;;;;;;;28.63;12.77;;;;;;;0.01;100.00;98777.25;5110941;28;20707;-79
2021/12/10 05:38:59;;;;;;;29.63;13.75;;;;;;;0.23;100.00;98773.03;5110420;28;20078;-79
2021/12/10 05:41:27;;;;;;;33.67;14.50;;;;;;;0.04;100.00;98779.81;5110389;28;20104;-79
2021/12/10 05:43:54;;;;;;;26.92;13.25;;;;;;;0.06;100.00;98775.34;5110551;28;20058;-79
2021/12/10 05:46:22;;;;;;;27.08;12.63;;;;;;;0.33;100.00;98770.94;5110511;28;20051;-79
2021/12/10 05:48:49;;;;;;;27.83;13.40;;;;;;;0.11;100.00;98765.44;5110570;27;20108;-79
2021/12/10 05:51:19;;;;;;;26.40;12.70;;;;;;;0.35;100.00;98773.56;5110047;28;20051;-79
2021/12/10 05:53:46;;;;;;;24.40;11.52;;;;;;;0.14;100.00;98783.94;5110006;28;20073;-79
2021/12/10 05:56:14;;;;;;;28.15;12.50;;;;;;;0.07;100.00;98785.91;5110494;28;20512;-79
2021/12/10 05:58:41;;;;;;;28.15;12.43;;;;;;;0.33;100.00;98784.22;5110714;28;20482;-79
2021/12/10 06:01:11;;;;;;;25.77;11.40;;;;;;;0.09;100.00;98791.16;5109845;28;20043;-79
2021/12/10 06:03:40;;;;;;;26.20;12.38;;;;;;;0.05;100.00;98794.84;5110239;28;20047;-79
2021/12/10 06:06:08;;;;;;;28.60;13.05;;;;;;;0.03;100.00;98801.97;5109595;28;20055;-79
2021/12/10 06:08:38;;;;;;;25.25;11.57;;;;;;;-0.01;100.00;98798.53;5110756;28;20047;-80
2021/12/10 06:11:06;;;;;;;28.80;12.70;;;;;;;0.08;100.00;98800.94;5113519;28;20044;-79
2021/12/10 06:13:34;;;;;;;22.90;11.45;;;;;;;0.11;100.00;98799.97;5113741;28;20390;-78
2021/12/10 06:16:02;;;;;;;44.40;21.08;;;;;;;0.08;100.00;98797.41;5114135;28;20114;-79
2021/12/10 06:18:29;;;;;;;36.85;18.27;;;;;;;0.22;100.00;98778.38;5113762;28;20051;-79
2021/12/10 06:20:57;;;;;;;25.25;11.63;;;;;;;0.02;100.00;98781.66;5112873;28;20052;-79
2021/12/10 06:23:25;;;;;;;25.25;11.95;;;;;;;0.07;100.00;98771.75;5112868;27;20043;-79
2021/12/10 06:25:54;;;;;;;25.40;12.48;;;;;;;0.04;100.00;98782.47;5113298;28;20035;-79
2021/12/10 06:28:22;;;;;;;25.70;11.70;;;;;;;0.12;100.00;98796.38;5113626;28;20055;-79
2021/12/10 06:30:51;;;;;;;26.15;11.75;;;;;;;0.19;100.00;98774.03;5113546;28;20439;-79
2021/12/10 06:33:21;;;;;;;26.95;12.05;;;;;;;0.15;100.00;98775.03;5113520;28;20044;-79
2021/12/10 06:35:51;;;;;;;26.42;11.95;;;;;;;0.28;100.00;98787.03;5114304;28;20040;-79
2021/12/10 06:38:19;;;;;;;25.13;11.30;;;;;;;0.09;100.00;98785.84;5113520;28;20448;-79
2021/12/10 06:40:47;;;;;;;27.08;11.52;;;;;;;0.14;100.00;98770.66;5113469;28;20498;-79
2021/12/10 06:43:17;;;;;;;25.35;11.77;;;;;;;0.20;100.00;98774.91;5113522;28;20432;-79
2021/12/10 06:45:46;;;;;;;27.48;12.48;;;;;;;0.04;100.00;98774.50;5113471;28;20100;-79
2021/12/10 06:48:14;;;;;;;26.40;11.60;;;;;;;0.08;100.00;98787.66;5113627;27;20070;-79
2021/12/10 06:50:46;;;;;;;24.23;11.30;;;;;;;0.26;100.00;98795.97;5113085;28;20044;-78
2021/12/10 06:53:13;;;;;;;24.88;10.55;;;;;;;0.33;100.00;98805.47;5116184;28;20043;-79
2021/12/10 06:55:41;;;;;;;23.40;10.63;;;;;;;0.19;100.00;98813.88;5113307;28;20104;-79
2021/12/10 06:58:09;;;;;;;24.02;10.43;;;;;;;0.14;100.00;98818.44;5113375;28;20050;-79
2021/12/10 07:00:42;;;;;;;20.95;9.38;;;;;;;0.31;100.00;98804.66;5113322;28;20488;-78
2021/12/10 07:03:12;;;;;;;21.20;9.32;;;;;;;0.30;100.00;98799.41;5114006;28;20093;-79
2021/12/10 07:05:39;;;;;;;20.63;9.93;;;;;;;0.17;100.00;98794.44;5113279;27;20039;-79
2021/12/10 07:08:08;;;;;;;21.27;9.68;;;;;;;0.15;100.00;98801.59;5113456;28;20439;-79
2021/12/10 07:10:36;;;;;;;22.42;9.98;;;;;;;0.19;100.00;98797.94;5112885;27;20489;-77
2021/12/10 07:13:06;;;;;;;23.83;11.25;;;;;;;0.26;100.00;98778.25;5114884;28;20043;-79
2021/12/10 07:15:34;;;;;;;40.20;17.60;;;;;;;0.09;100.00;98780.53;5118886;28;20050;-79
2021/12/10 07:18:04;;;;;;;42.45;19.45;;;;;;;-0.16;100.00;98784.81;5116581;28;20044;-79
2021/12/10 07:20:32;;;;;;;28.67;14.15;;;;;;;0.08;100.00;98789.44;5116845;27;20059;-79
2021/12/10 07:23:00;;;;;;;20.77;9.90;;;;;;;0.04;100.00;98799.28;5117210;28;20092;-79
2021/12/10 07:25:28;;;;;;;20.48;9.40;;;;;;;0.06;100.00;98791.25;5116796;27;20696;-79
2021/12/10 07:27:56;;;;;;;21.42;9.95;;;;;;;0.05;100.00;98800.16;5116916;27;20400;-79
2021/12/10 07:30:25;;;;;;;46.92;22.17;;;;;;;0.03;100.00;98802.88;5116917;27;20051;-79
2021/12/10 07:32:53;;;;;;;70.22;32.25;;;;;;;0.02;100.00;98811.75;5116280;28;20039;-79
2021/12/10 07:35:22;;;;;;;34.22;15.20;;;;;;;0.09;100.00;98808.00;5116888;28;20043;-79
2021/12/10 07:37:50;;;;;;;55.38;23.73;;;;;;;0.11;100.00;98810.59;5116629;28;20447;-79
2021/12/10 07:40:20;;;;;;;71.47;29.23;;;;;;;0.38;100.00;98802.69;5116667;28;20493;-79
2021/12/10 07:42:48;;;;;;;25.55;11.95;;;;;;;0.32;100.00;98800.22;5116902;28;20106;-79
2021/12/10 07:45:17;;;;;;;65.60;25.10;;;;;;;0.12;100.00;98797.28;5116431;28;20089;-79
2021/12/10 07:47:46;;;;;;;27.65;12.07;;;;;;;0.08;100.00;98810.66;5116137;27;20496;-79
2021/12/10 07:50:15;;;;;;;19.90;8.55;;;;;;;0.04;100.00;98824.97;5116469;28;20048;-79
2021/12/10 07:52:45;;;;;;;17.08;7.55;;;;;;;0.10;100.00;98824.78;5116333;27;20382;-79
2021/12/10 07:55:16;;;;;;;20.02;9.30;;;;;;;0.06;100.00;98826.66;5115756;28;20513;-79
2021/12/10 07:57:44;;;;;;;53.72;19.77;;;;;;;0.07;100.00;98815.13;5114101;27;20039;-79
2021/12/10 08:00:15;;;;;;;212.60;65.55;;;;;;;0.25;100.00;98808.41;5112190;28;20052;-79
2021/12/10 08:02:43;;;;;;;37.28;14.25;;;;;;;0.23;100.00;98804.03;5112382;28;20046;-79
2021/12/10 08:05:12;;;;;;;37.83;15.10;;;;;;;0.13;100.00;98808.75;5112494;28;20050;-79
2021/12/10 08:07:39;;;;;;;101.15;37.95;;;;;;;0.11;100.00;98805.28;5112287;28;20566;-79
2021/12/10 08:10:10;;;;;;;58.33;22.58;;;;;;;0.21;100.00;98793.47;5112643;28;20503;-79
2021/12/10 08:12:38;;;;;;;74.82;30.85;;;;;;;0.10;100.00;98782.28;5112054;28;20492;-79
2021/12/10 08:15:07;;;;;;;74.72;33.05;;;;;;;0.52;100.00;98778.34;5112460;28;20105;-79
2021/12/10 08:17:35;;;;;;;63.03;31.38;;;;;;;0.49;100.00;98784.63;5111946;28;20455;-79
2021/12/10 08:20:05;;;;;;;34.33;16.77;;;;;;;0.20;100.00;98786.38;5112098;28;20047;-79
2021/12/10 08:22:32;;;;;;;28.25;14.35;;;;;;;0.18;100.00;98784.72;5112221;27;20044;-79
2021/12/10 08:25:00;;;;;;;25.45;13.00;;;;;;;0.07;100.00;98772.66;5111359;28;20093;-79
2021/12/10 08:27:29;;;;;;;25.27;12.52;;;;;;;0.25;100.00;98775.63;5112179;28;20447;-79
2021/12/10 08:30:02;;;;;;;25.00;12.00;;;;;;;0.16;100.00;98775.94;5112112;28;20124;-79
2021/12/10 08:32:31;;;;;;;21.98;11.52;;;;;;;0.14;100.00;98770.66;5113364;28;20050;-79
2021/12/10 08:34:59;;;;;;;29.30;14.68;;;;;;;0.17;100.00;98756.41;5112369;28;20119;-79
2021/12/10 08:37:27;;;;;;;29.77;15.43;;;;;;;0.57;100.00;98755.16;5111587;27;20462;-79
2021/12/10 08:39:55;;;;;;;25.33;12.75;;;;;;;0.12;100.00;98749.47;5111975;27;20055;-79
2021/12/10 08:42:22;;;;;;;31.33;15.02;;;;;;;0.08;100.00;98753.13;5111814;28;20504;-79
2021/12/10 08:44:51;;;;;;;29.77;15.40;;;;;;;0.12;100.00;98749.47;5111512;27;20048;-79
2021/12/10 08:47:19;;;;;;;30.35;15.73;;;;;;;0.12;100.00;98754.78;5110932;27;20048;-80
2021/12/10 08:49:47;;;;;;;28.95;12.48;;;;;;;0.34;100.00;98747.91;5110279;27;20442;-80
2021/12/10 08:52:16;;;;;;;29.77;14.77;;;;;;;0.28;100.00;98744.53;5111339;28;20047;-79
2021/12/10 08:54:44;;;;;;;25.92;12.95;;;;;;;0.16;100.00;98755.53;5110523;28;20050;-80
2021/12/10 08:57:12;;;;;;;27.65;12.45;;;;;;;0.36;100.00;98743.44;5109362;28;20028;-79
2021/12/10 08:59:40;;;;;;;26.67;12.93;;;;;;;0.50;100.00;98743.84;5110544;28;20093;-79
2021/12/10 09:02:11;;;;;;;28.88;12.90;;;;;;;0.55;100.00;98752.53;5111121;28;20055;-80
2021/12/10 09:04:39;;;;;;;25.00;11.98;;;;;;;0.24;100.00;98765.94;5111771;28;20088;-79
2021/12/10 09:07:09;;;;;;;25.48;11.82;;;;;;;0.17;100.00;98770.56;5111328;28;20481;-79
2021/12/10 09:09:40;;;;;;;23.60;11.68;;;;;;;0.57;100.00;98749.81;5111100;28;20055;-79
2021/12/10 09:12:12;;;;;;;24.25;11.80;;;;;;;0.45;100.00;98751.09;5110768;28;20054;-81
2021/12/10 09:14:44;;;;;;;23.42;11.90;;;;;;;0.33;100.00;98757.66;5111411;28;20575;-80
2021/12/10 09:17:16;;;;;;;24.42;12.25;;;;;;;0.22;100.00;98746.50;5112092;28;20493;-81
2021/12/10 09:19:45;;;;;;;26.10;12.25;;;;;;;0.19;100.00;98739.50;5111483;28;20489;-79
2021/12/10 09:22:12;;;;;;;24.80;12.25;;;;;;;0.39;100.00;98748.63;5110869;28;20059;-81
2021/12/10 09:24:41;;;;;;;28.67;12.98;;;;;;;0.45;100.00;98747.59;5110535;27;20494;-81
2021/12/10 09:27:09;;;;;;;27.75;13.43;;;;;;;0.55;100.00;98739.22;5110879;28;20108;-81
2021/12/10 09:29:42;;;;;;;28.25;12.32;;;;;;;0.59;100.00;98745.31;5110664;27;20549;-81
2021/12/10 09:32:13;;;;;;;25.17;12.70;;;;;;;0.46;100.00;98759.94;5112751;27;20513;-81
2021/12/10 09:34:41;;;;;;;25.00;12.20;;;;;;;0.31;100.00;98756.84;5110944;28;20104;-80
2021/12/10 09:37:09;;;;;;;24.73;12.93;;;;;;;0.26;100.00;98754.34;5109829;27;20113;-79
2021/12/10 09:39:38;;;;;;;25.90;12.52;;;;;;;0.32;100.00;98744.44;5110742;28;20081;-81
2021/12/10 09:42:06;;;;;;;24.27;12.35;;;;;;;0.43;100.00;98737.88;5110279;27;20047;-81
2021/12/10 09:44:34;;;;;;;29.95;14.13;;;;;;;0.20;100.00;98741.25;5109688;28;20561;-81
2021/12/10 09:47:02;;;;;;;24.35;12.52;;;;;;;0.28;100.00;98741.88;5110135;27;20048;-81
2021/12/10 09:49:31;;;;;;;24.70;12.68;;;;;;;0.45;100.00;98761.72;5109369;28;20493;-81
2021/12/10 09:52:02;;;;;;;25.92;13.23;;;;;;;0.42;100.00;98775.09;5107780;28;20085;-79
2021/12/10 09:54:32;;;;;;;27.67;12.48;;;;;;;0.31;100.00;98767.47;5110978;28;20043;-79
2021/12/10 09:57:04;;;;;;;27.20;13.90;;;;;;;0.49;100.00;98762.50;5110300;27;20089;-80
2021/12/10 09:59:32;;;;;;;27.52;13.13;;;;;;;0.37;100.00;98769.06;5111926;28;20049;-80
2021/12/10 10:02:00;;;;;;;27.13;13.98;;;;;;;0.24;100.00;98782.75;5110065;28;20047;-80
2021/12/10 10:04:33;;;;;;;29.90;13.73;;;;;;;0.45;100.00;98782.13;5110199;28;20051;-79
2021/12/10 10:07:05;;;;;;;27.02;13.98;;;;;;;0.20;100.00;98773.09;5111500;28;20048;-79
2021/12/10 10:09:32;;;;;;;25.58;13.50;;;;;;;0.53;100.00;98764.13;5112158;27;20051;-79
2021/12/10 10:12:02;;;;;;;26.60;13.65;;;;;;;0.32;100.00;98769.22;5109416;27;20055;-80
2021/12/10 10:14:30;;;;;;;29.10;13.88;;;;;;;0.28;100.00;98757.81;5110059;28;20092;-79
2021/12/10 10:16:58;;;;;;;29.75;14.77;;;;;;;0.32;100.00;98752.41;5109089;27;20051;-80
2021/12/10 10:19:26;;;;;;;30.88;14.90;;;;;;;0.42;100.00;98760.06;5109857;28;20051;-79
2021/12/10 10:21:58;;;;;;;32.08;15.30;;;;;;;0.40;100.00;98745.06;5109465;28;20096;-81
2021/12/10 10:24:27;;;;;;;29.67;15.15;;;;;;;0.37;100.00;98747.81;5111075;28;20105;-79
2021/12/10 10:26:59;;;;;;;30.90;15.70;;;;;;;0.38;100.00;98750.41;5109677;28;20051;-79
2021/12/10 10:29:29;;;;;;;31.15;15.55;;;;;;;0.42;100.00;98759.16;5110111;27;20565;-79
2021/12/10 10:32:00;;;;;;;32.13;15.63;;;;;;;0.41;100.00;98749.47;5110052;27;20044;-79
2021/12/10 10:34:28;;;;;;;33.78;16.25;;;;;;;0.49;100.00;98741.25;5110977;28;20043;-80
2021/12/10 10:36:57;;;;;;;31.05;16.17;;;;;;;0.44;100.00;98744.03;5109782;28;20105;-79
2021/12/10 10:39:32;;;;;;;32.08;15.70;;;;;;;0.45;100.00;98745.78;5110001;28;20063;-80
2021/12/10 10:42:00;;;;;;;39.70;17.35;;;;;;;0.50;100.00;98733.22;5109582;28;20051;-79
2021/12/10 10:44:28;;;;;;;47.30;21.27;;;;;;;0.43;100.00;98735.22;5110026;28;20043;-80
2021/12/10 10:46:57;;;;;;;35.58;17.15;;;;;;;0.51;100.00;98734.09;5111546;28;20128;-79
2021/12/10 10:49:34;;;;;;;33.75;16.30;;;;;;;0.49;100.00;98741.25;5113913;28;20529;-80
2021/12/10 10:52:15;;;;;;;34.38;16.35;;;;;;;0.52;100.00;98731.38;5114381;27;20416;-79
2021/12/10 10:54:43;;;;;;;38.05;18.25;;;;;;;0.49;100.00;98736.78;5114327;27;20039;-79
2021/12/10 10:57:15;;;;;;;32.78;16.08;;;;;;;0.47;100.00;98749.25;5113665;28;20085;-79
2021/12/10 10:59:43;;;;;;;34.83;16.77;;;;;;;0.49;100.00;98752.72;5113931;28;20046;-80
2021/12/10 11:02:11;;;;;;;33.25;16.45;;;;;;;0.43;100.00;98748.50;5113456;28;20047;-80
2021/12/10 11:04:41;;;;;;;30.30;16.45;;;;;;;0.42;100.00;98740.56;5114151;28;20070;-79
2021/12/10 11:07:12;;;;;;;31.20;15.68;;;;;;;0.73;100.00;98734.25;5113618;27;20047;-79
2021/12/10 11:09:47;;;;;;;31.52;16.38;;;;;;;0.45;100.00;98734.31;5114871;28;20097;-79
2021/12/10 11:12:20;;;;;;;33.10;16.70;;;;;;;0.51;100.00;98734.94;5114751;28;20439;-79
2021/12/10 11:14:50;;;;;;;32.95;16.95;;;;;;;0.38;100.00;98730.97;5113489;28;20051;-79
2021/12/10 11:17:23;;;;;;;33.50;16.50;;;;;;;0.57;100.00;98733.88;5113482;28;20049;-79
2021/12/10 11:19:53;;;;;;;34.30;16.70;;;;;;;0.49;100.00;98728.81;5113014;28;20373;-78
2021/12/10 11:22:22;;;;;;;42.38;21.67;;;;;;;0.49;100.00;98725.31;5113208;27;20108;-77
2021/12/10 11:24:55;;;;;;;37.50;18.30;;;;;;;0.49;100.00;98734.13;5112378;28;20051;-77
2021/12/10 11:27:27;;;;;;;37.28;19.30;;;;;;;0.50;100.00;98742.97;5113456;27;20051;-78
2021/12/10 11:29:56;;;;;;;32.97;16.52;;;;;;;0.67;100.00;98756.56;5115506;27;20050;-80
2021/12/10 11:32:35;;;;;;;38.38;17.98;;;;;;;0.58;100.00;98746.25;5115539;27;20424;-78